createdAt,value
2022-08-12T00:00:27.592Z,57.05
2022-08-12T00:05:59.679Z,56.64
2022-08-12T00:11:26.507Z,56.54
2022-08-12T00:16:47.243Z,56.29
2022-08-12T00:22:09.117Z,55.91
2022-08-12T00:27:43.860Z,55.49
2022-08-12T00:33:06.532Z,55.50
2022-08-12T00:38:28.690Z,55.51
2022-08-12T00:43:31.609Z,55.29
2022-08-12T00:48:35.123Z,55.21
2022-08-12T00:53:39.957Z,55.13
2022-08-12T00:58:48.403Z,55.27
2022-08-12T01:04:09.647Z,55.19
2022-08-12T01:09:33.025Z,55.20
2022-08-12T01:14:36.499Z,55.39
2022-08-12T01:19:39.628Z,55.60
2022-08-12T01:25:00.790Z,55.78
2022-08-12T01:30:07.623Z,55.59
2022-08-12T01:35:13.536Z,56.19
2022-08-12T01:40:33.409Z,55.90
2022-08-12T01:45:48.402Z,56.32
2022-08-12T01:51:05.316Z,56.17
2022-08-12T01:56:11.260Z,56.66
2022-08-12T02:01:15.051Z,56.64
2022-08-12T02:06:44.415Z,56.75
2022-08-12T02:11:58.919Z,56.58
2022-08-12T02:17:56.280Z,56.82
2022-08-12T02:22:55.278Z,56.92
2022-08-12T02:27:59.879Z,57.13
2022-08-12T02:33:09.042Z,57.35
2022-08-12T02:38:12.677Z,57.40
2022-08-12T02:43:23.230Z,57.79
2022-08-12T02:48:30.766Z,58.03
2022-08-12T02:53:35.691Z,58.10
2022-08-12T02:58:45.359Z,58.12
2022-08-12T03:03:52.823Z,58.68
2022-08-12T03:08:59.632Z,58.68
2022-08-12T03:14:07.086Z,58.71
2022-08-12T03:19:12.060Z,58.97
2022-08-12T03:24:18.497Z,59.11
2022-08-12T03:29:30.257Z,59.40
2022-08-12T03:34:35.316Z,59.87
2022-08-12T03:39:44.905Z,59.74
2022-08-12T03:45:14.877Z,60.09
2022-08-12T03:50:35.788Z,59.94
2022-08-12T03:55:56.189Z,60.11
2022-08-12T04:01:00.591Z,60.64
2022-08-12T04:06:03.487Z,60.83
2022-08-12T04:11:25.496Z,60.93
2022-08-12T04:16:31.485Z,61.09
2022-08-12T04:21:36.167Z,61.00
2022-08-12T04:26:40.876Z,61.24
2022-08-12T04:31:47.555Z,61.12
2022-08-12T04:36:50.392Z,61.17
2022-08-12T04:41:58.329Z,61.16
2022-08-12T04:47:03.248Z,61.49
2022-08-12T04:52:06.759Z,61.51
2022-08-12T04:57:35.554Z,61.29
2022-08-12T05:02:40.512Z,61.55
2022-08-12T05:07:53.100Z,61.66
2022-08-12T05:12:59.535Z,61.69
2022-08-12T05:18:19.703Z,61.58
2022-08-12T05:23:23.542Z,61.28
2022-08-12T05:28:27.731Z,61.61
2022-08-12T05:33:37.580Z,60.92
2022-08-12T05:38:59.804Z,60.68
2022-08-12T05:44:05.709Z,60.48
2022-08-12T05:49:10.323Z,59.95
2022-08-12T05:54:13.237Z,60.01
2022-08-12T05:59:16.298Z,59.65
2022-08-12T06:04:20.492Z,58.91
2022-08-12T06:09:25.667Z,57.90
2022-08-12T06:14:28.998Z,56.90
2022-08-12T06:20:26.046Z,57.39
2022-08-12T06:25:00.462Z,58.41
2022-08-12T06:30:08.177Z,58.90
2022-08-12T06:35:26.843Z,58.23
2022-08-12T06:40:57.195Z,57.19
2022-08-12T06:46:00.683Z,55.67
2022-08-12T06:51:05.678Z,52.94
2022-08-12T06:56:12.398Z,48.79
2022-08-12T07:01:17.441Z,44.12
2022-08-12T07:06:21.703Z,37.80
2022-08-12T07:11:24.767Z,32.09
2022-08-12T07:16:28.484Z,30.56
2022-08-12T07:22:00.388Z,29.56
2022-08-12T07:26:56.747Z,29.47
2022-08-12T07:31:59.700Z,26.81
2022-08-12T07:37:03.965Z,24.34
2022-08-12T07:42:07.261Z,23.39
2022-08-12T07:47:10.678Z,23.85
2022-08-12T07:52:17.038Z,24.19
2022-08-12T07:57:19.882Z,22.75
2022-08-12T08:02:26.773Z,24.64
2022-08-12T08:07:31.458Z,24.61
2022-08-12T08:12:51.960Z,25.27
2022-08-12T08:18:01.719Z,26.74
2022-08-12T08:23:08.283Z,30.45
2022-08-12T08:28:12.079Z,35.14
2022-08-12T08:33:24.597Z,39.98
2022-08-12T08:38:44.668Z,41.37
2022-08-12T08:44:03.056Z,42.32
2022-08-12T08:49:06.325Z,41.39
2022-08-12T08:54:11.537Z,43.01
2022-08-12T08:59:15.086Z,42.49
2022-08-12T09:05:12.014Z,42.15
2022-08-12T09:10:01.982Z,42.02
2022-08-12T09:20:33.557Z,42.43
2022-08-12T09:25:37.975Z,42.13
2022-08-12T09:30:47.329Z,39.96
2022-08-12T09:36:04.464Z,41.09
2022-08-12T09:42:34.502Z,40.13
2022-08-12T09:46:32.355Z,39.68
2022-08-12T09:51:43.661Z,40.48
2022-08-12T09:57:02.006Z,39.92
2022-08-12T10:02:43.996Z,38.54
2022-08-12T10:07:39.770Z,38.46
2022-08-12T10:13:06.955Z,37.64
2022-08-12T10:18:12.056Z,36.98
2022-08-12T10:23:15.198Z,37.80
2022-08-12T10:28:38.381Z,37.82
2022-08-12T10:33:50.650Z,38.75
2022-08-12T10:40:00.164Z,37.28
2022-08-12T10:44:30.979Z,36.16
2022-08-12T10:50:03.592Z,35.59
2022-08-12T10:54:58.530Z,33.79
2022-08-12T11:00:30.947Z,34.66
2022-08-12T11:07:08.937Z,33.45
2022-08-12T11:10:48.479Z,34.24
2022-08-12T11:16:19.419Z,34.10
2022-08-12T11:21:18.117Z,32.57
2022-08-12T11:26:21.685Z,32.86
2022-08-12T11:31:26.059Z,32.83
2022-08-12T11:36:53.540Z,31.59
2022-08-12T11:41:56.444Z,32.63
2022-08-12T11:47:03.839Z,31.95
2022-08-12T11:52:17.564Z,31.65
2022-08-12T11:58:07.613Z,31.08
2022-08-12T12:03:17.303Z,30.48
2022-08-12T12:08:37.700Z,29.60
2022-08-12T12:14:08.101Z,29.94
2022-08-12T12:19:10.267Z,29.46
2022-08-12T12:24:13.278Z,28.93
2022-08-12T12:29:16.072Z,28.37
2022-08-12T12:34:40.283Z,28.50
2022-08-12T12:40:03.082Z,27.45
2022-08-12T12:45:19.059Z,28.56
2022-08-12T12:50:26.877Z,28.17
2022-08-12T12:55:39.734Z,28.36
2022-08-12T13:00:49.974Z,28.22
2022-08-12T13:06:00.543Z,28.39
2022-08-12T13:11:05.781Z,29.03
2022-08-12T13:16:14.287Z,28.88
2022-08-12T13:21:33.664Z,28.75
2022-08-12T13:26:40.609Z,29.18
2022-08-12T13:32:01.999Z,28.86
2022-08-12T13:37:09.876Z,28.95
2022-08-12T13:42:14.787Z,29.03
2022-08-12T13:47:19.549Z,28.97
2022-08-12T13:52:25.697Z,29.02
2022-08-12T13:57:46.885Z,29.05
2022-08-12T14:02:53.162Z,28.83
2022-08-12T14:07:59.104Z,29.01
2022-08-12T14:13:10.320Z,29.16
2022-08-12T14:18:21.370Z,28.96
2022-08-12T14:24:04.365Z,28.75
2022-08-12T14:28:57.882Z,29.39
2022-08-12T14:34:05.305Z,28.13
2022-08-12T14:39:09.706Z,27.40
2022-08-12T14:44:58.144Z,27.51
2022-08-12T14:50:37.190Z,27.09
2022-08-12T15:00:47.234Z,27.33
2022-08-12T15:06:05.434Z,26.67
2022-08-12T15:11:21.795Z,26.39
2022-08-12T15:16:25.827Z,26.60
2022-08-12T15:22:35.557Z,26.89
2022-08-12T15:26:58.380Z,26.28
2022-08-12T15:32:07.695Z,26.17
2022-08-12T15:37:18.664Z,25.96
2022-08-12T15:42:24.620Z,26.58
2022-08-12T15:47:43.099Z,26.59
2022-08-12T15:52:51.721Z,27.30
2022-08-12T15:57:58.388Z,27.40
2022-08-12T16:03:05.598Z,28.29
2022-08-12T16:08:19.751Z,28.70
2022-08-12T16:13:34.342Z,28.87
2022-08-12T16:18:39.270Z,28.40
2022-08-12T16:23:52.178Z,28.60
2022-08-12T16:29:02.541Z,29.10
2022-08-12T16:34:41.945Z,28.94
2022-08-12T16:40:01.105Z,28.24
2022-08-12T16:45:06.875Z,28.98
2022-08-12T16:50:11.496Z,28.53
2022-08-12T16:55:18.725Z,28.40
2022-08-12T17:00:24.075Z,28.98
2022-08-12T17:05:31.161Z,31.37
2022-08-12T17:10:35.525Z,36.36
2022-08-12T17:15:57.003Z,37.49
2022-08-12T17:21:07.402Z,38.09
2022-08-12T17:26:11.342Z,37.50
2022-08-12T17:31:17.757Z,38.26
2022-08-12T17:36:43.320Z,38.61
2022-08-12T17:41:56.944Z,38.98
2022-08-12T17:47:03.172Z,39.33
2022-08-12T17:52:08.160Z,39.95
2022-08-12T17:57:16.568Z,40.09
2022-08-12T18:02:25.423Z,40.08
2022-08-12T18:07:35.962Z,40.85
2022-08-12T18:12:42.719Z,41.37
2022-08-12T18:18:00.009Z,42.08
2022-08-12T18:23:05.314Z,42.17
2022-08-12T18:28:15.193Z,43.03
2022-08-12T18:33:24.765Z,43.20
2022-08-12T18:38:28.283Z,43.95
2022-08-12T18:43:38.942Z,44.42
2022-08-12T18:48:57.511Z,44.89
2022-08-12T18:54:21.094Z,45.25
2022-08-12T19:00:00.972Z,45.44
2022-08-12T19:04:53.840Z,45.83
2022-08-12T19:10:00.046Z,46.21
2022-08-12T19:15:08.119Z,46.73
2022-08-12T19:20:14.702Z,47.24
2022-08-12T19:25:23.915Z,47.31
2022-08-12T19:31:03.942Z,47.73
2022-08-12T19:36:25.417Z,48.41
2022-08-12T19:41:42.996Z,48.11
2022-08-12T19:46:53.201Z,48.49
2022-08-12T19:51:58.033Z,48.78
2022-08-12T19:57:01.492Z,49.33
2022-08-12T20:02:08.742Z,49.46
2022-08-12T20:07:23.923Z,49.68
2022-08-12T20:12:34.585Z,50.37
2022-08-12T20:17:50.485Z,49.93
2022-08-12T20:22:55.739Z,50.19
2022-08-12T20:28:04.172Z,50.53
2022-08-12T20:33:17.398Z,50.63
2022-08-12T20:38:27.988Z,50.94
2022-08-12T20:43:35.960Z,50.74
2022-08-12T20:48:44.277Z,51.53
2022-08-12T20:53:57.881Z,51.48
2022-08-12T20:59:05.422Z,52.10
2022-08-12T21:04:27.204Z,51.99
2022-08-12T21:09:34.284Z,52.00
2022-08-12T21:14:53.399Z,52.58
2022-08-12T21:20:04.463Z,52.77
2022-08-12T21:25:14.227Z,53.71
2022-08-12T21:30:20.207Z,54.02
2022-08-12T21:35:30.405Z,53.18
2022-08-12T21:40:51.791Z,53.57
2022-08-12T21:46:01.232Z,54.14
2022-08-12T21:51:22.668Z,54.51
2022-08-12T21:56:34.453Z,54.41
2022-08-12T22:01:48.383Z,54.74
2022-08-12T22:06:53.435Z,55.38
2022-08-12T22:12:19.930Z,55.96
2022-08-12T22:17:33.898Z,56.88
2022-08-12T22:22:56.092Z,57.85
2022-08-12T22:28:24.560Z,58.09
2022-08-12T22:33:27.716Z,58.01
2022-08-12T22:38:30.654Z,56.01
2022-08-12T22:44:00.344Z,55.44
2022-08-12T22:49:06.712Z,56.39
2022-08-12T22:54:36.650Z,57.67
2022-08-12T22:59:51.384Z,58.61
2022-08-12T23:04:59.244Z,59.37
2022-08-12T23:10:04.130Z,59.12
2022-08-12T23:15:10.272Z,60.25
2022-08-12T23:20:15.011Z,59.71
2022-08-12T23:25:19.000Z,60.21
2022-08-12T23:30:31.047Z,60.53
2022-08-12T23:35:54.051Z,60.88
2022-08-12T23:41:02.742Z,61.08
2022-08-12T23:46:08.750Z,61.20
2022-08-12T23:51:22.435Z,61.10
2022-08-12T23:56:28.589Z,59.74
